createdAt,value
2017-08-06T00:00:03.107Z,0
2017-08-06T00:05:03.141Z,0
2017-08-06T00:10:02.496Z,0
2017-08-06T00:15:02.825Z,0
2017-08-06T00:20:02.340Z,0
2017-08-06T00:25:02.655Z,0
2017-08-06T00:30:03.090Z,0
2017-08-06T00:35:02.411Z,0
2017-08-06T00:40:02.737Z,0
2017-08-06T00:45:03.084Z,0
2017-08-06T00:50:02.467Z,0
2017-08-06T00:55:02.698Z,0
2017-08-06T01:00:03.092Z,0
2017-08-06T01:05:02.577Z,0
2017-08-06T01:10:03.077Z,0
2017-08-06T01:15:02.417Z,0
2017-08-06T01:20:02.929Z,0
2017-08-06T01:25:02.419Z,0
2017-08-06T01:30:02.820Z,0
2017-08-06T01:35:03.173Z,0
2017-08-06T01:40:02.591Z,0
2017-08-06T01:45:03.102Z,0
2017-08-06T01:50:02.535Z,0
2017-08-06T01:55:03.014Z,0
2017-08-06T02:00:03.306Z,0
2017-08-06T02:05:02.587Z,0
2017-08-06T02:10:03.126Z,0
2017-08-06T02:15:02.390Z,0
2017-08-06T02:20:02.797Z,0
2017-08-06T02:25:03.073Z,0
2017-08-06T02:30:02.359Z,0
2017-08-06T02:35:02.657Z,0
2017-08-06T02:40:02.975Z,0
2017-08-06T02:45:02.326Z,0
2017-08-06T02:50:02.698Z,0
2017-08-06T02:55:03.203Z,0
2017-08-06T03:00:02.518Z,0
2017-08-06T03:05:02.820Z,0
2017-08-06T03:10:03.344Z,0
2017-08-06T03:15:02.751Z,0
2017-08-06T03:20:03.108Z,0
2017-08-06T03:25:02.478Z,0
2017-08-06T03:30:02.766Z,2
2017-08-06T03:35:03.173Z,4
2017-08-06T03:40:02.664Z,10
2017-08-06T03:45:03.121Z,27
2017-08-06T03:50:02.349Z,38
2017-08-06T03:55:02.842Z,52
2017-08-06T04:00:03.550Z,64
2017-08-06T04:05:02.999Z,97
2017-08-06T04:10:02.578Z,134
2017-08-06T04:15:03.424Z,326
2017-08-06T04:20:02.928Z,411
2017-08-06T04:25:02.428Z,502
2017-08-06T04:30:03.285Z,588
2017-08-06T04:35:02.701Z,686
2017-08-06T04:40:03.220Z,765
2017-08-06T04:45:02.518Z,850
2017-08-06T04:50:03.131Z,970
2017-08-06T04:55:02.451Z,1000
2017-08-06T05:00:02.965Z,1000
2017-08-06T05:05:02.422Z,1000
2017-08-06T05:10:02.827Z,1000
2017-08-06T05:15:02.361Z,1000
2017-08-06T05:20:02.852Z,1000
2017-08-06T05:25:02.379Z,1000
2017-08-06T05:30:02.924Z,1000
2017-08-06T05:35:02.376Z,1000
2017-08-06T05:40:02.984Z,2000
2017-08-06T05:45:02.345Z,2000
2017-08-06T05:50:02.878Z,2000
2017-08-06T05:55:02.354Z,2000
2017-08-06T06:00:02.778Z,2000
2017-08-06T06:05:03.233Z,2000
2017-08-06T06:10:02.694Z,2000
2017-08-06T06:15:03.003Z,2000
2017-08-06T06:20:02.602Z,2000
2017-08-06T06:25:03.089Z,2000
2017-08-06T06:30:02.632Z,2000
2017-08-06T06:35:03.166Z,2000
2017-08-06T06:40:02.722Z,2000
2017-08-06T06:45:02.365Z,2000
2017-08-06T06:50:02.616Z,2000
2017-08-06T06:55:03.170Z,2000
2017-08-06T07:00:02.553Z,2000
2017-08-06T07:05:02.871Z,2000
2017-08-06T07:10:02.434Z,2000
2017-08-06T07:15:02.990Z,2000
2017-08-06T07:20:03.299Z,2000
2017-08-06T07:25:02.727Z,2000
2017-08-06T07:30:03.209Z,3000
2017-08-06T07:35:02.517Z,3000
2017-08-06T07:40:02.953Z,3000
2017-08-06T07:45:03.309Z,3000
2017-08-06T07:50:02.827Z,3000
2017-08-06T07:55:03.352Z,3000
2017-08-06T08:00:02.856Z,11000
2017-08-06T08:05:03.231Z,36000
2017-08-06T08:10:02.612Z,36000
2017-08-06T08:15:03.134Z,37000
2017-08-06T08:20:02.634Z,37000
2017-08-06T08:25:03.047Z,38000
2017-08-06T08:30:02.446Z,19000
2017-08-06T08:35:02.950Z,43000
2017-08-06T08:40:02.490Z,44000
2017-08-06T08:45:02.914Z,49000
2017-08-06T08:50:02.492Z,54000
2017-08-06T08:55:02.928Z,53000
2017-08-06T09:00:03.312Z,10000
2017-08-06T09:05:02.707Z,26000
2017-08-06T09:10:03.214Z,17000
2017-08-06T09:15:02.629Z,13000
2017-08-06T09:20:03.133Z,59000
2017-08-06T09:25:02.591Z,11000
2017-08-06T09:30:03.076Z,53000
2017-08-06T09:35:02.585Z,21000
2017-08-06T09:40:02.998Z,58000
2017-08-06T09:45:02.479Z,10000
2017-08-06T09:50:02.809Z,12000
2017-08-06T09:55:03.283Z,56000
2017-08-06T10:00:02.665Z,15000
2017-08-06T10:05:03.117Z,46000
2017-08-06T10:10:02.693Z,9000
2017-08-06T10:15:03.303Z,8000
2017-08-06T10:20:02.770Z,55000
2017-08-06T10:25:03.163Z,55000
2017-08-06T10:30:02.470Z,56000
2017-08-06T10:35:02.940Z,54000
2017-08-06T10:40:02.487Z,54000
2017-08-06T10:45:02.866Z,55000
2017-08-06T10:50:02.410Z,10000
2017-08-06T10:55:02.790Z,55000
2017-08-06T11:00:03.277Z,22000
2017-08-06T11:05:02.619Z,7000
2017-08-06T11:10:03.045Z,14000
2017-08-06T11:15:02.441Z,51000
2017-08-06T11:20:03.103Z,57000
2017-08-06T11:25:02.588Z,54000
2017-08-06T11:30:03.108Z,19000
2017-08-06T11:35:02.436Z,52000
2017-08-06T11:40:02.852Z,5000
2017-08-06T11:45:03.314Z,53000
2017-08-06T11:50:02.932Z,11000
2017-08-06T11:55:02.511Z,51000
2017-08-06T12:00:03.048Z,5000
2017-08-06T12:05:02.473Z,49000
2017-08-06T12:10:03.132Z,47000
2017-08-06T12:15:02.498Z,50000
2017-08-06T12:20:02.852Z,49000
2017-08-06T12:25:02.309Z,16000
2017-08-06T12:30:02.759Z,31000
2017-08-06T12:35:03.072Z,48000
2017-08-06T12:40:02.406Z,9000
2017-08-06T12:45:02.793Z,8000
2017-08-06T12:50:03.229Z,51000
2017-08-06T12:55:02.684Z,33000
2017-08-06T13:00:03.173Z,50000
2017-08-06T13:05:02.701Z,27000
2017-08-06T13:10:03.242Z,49000
2017-08-06T13:15:02.756Z,24000
2017-08-06T13:20:03.111Z,16000
2017-08-06T13:25:02.602Z,11000
2017-08-06T13:30:03.093Z,47000
2017-08-06T13:35:02.523Z,49000
2017-08-06T13:40:02.966Z,26000
2017-08-06T13:45:03.303Z,8000
2017-08-06T13:50:02.734Z,7000
2017-08-06T13:55:03.040Z,32000
2017-08-06T14:00:02.381Z,19000
2017-08-06T14:05:02.705Z,29000
2017-08-06T14:10:03.233Z,37000
2017-08-06T14:15:02.566Z,16000
2017-08-06T14:20:02.967Z,8000
2017-08-06T14:25:02.356Z,5000
2017-08-06T14:30:02.810Z,5000
2017-08-06T14:35:02.392Z,7000
2017-08-06T14:40:02.831Z,7000
2017-08-06T14:45:03.282Z,29000
2017-08-06T14:50:02.798Z,33000
2017-08-06T14:55:03.325Z,32000
2017-08-06T15:00:02.776Z,31000
2017-08-06T15:05:03.233Z,31000
2017-08-06T15:10:02.674Z,9000
2017-08-06T15:15:03.049Z,7000
2017-08-06T15:20:02.502Z,6000
2017-08-06T15:25:02.859Z,6000
2017-08-06T15:30:02.357Z,6000
2017-08-06T15:35:02.987Z,6000
2017-08-06T15:40:02.369Z,8000
2017-08-06T15:45:02.706Z,23000
2017-08-06T15:50:03.265Z,26000
2017-08-06T15:55:02.644Z,22000
2017-08-06T16:00:02.985Z,21000
2017-08-06T16:05:02.409Z,19000
2017-08-06T16:10:02.832Z,18000
2017-08-06T16:15:02.335Z,17000
2017-08-06T16:20:02.781Z,2000
2017-08-06T16:25:03.321Z,16000
2017-08-06T16:30:02.639Z,15000
2017-08-06T16:35:03.156Z,14000
2017-08-06T16:40:02.625Z,12000
2017-08-06T16:45:03.097Z,4000
2017-08-06T16:50:02.480Z,12000
2017-08-06T16:55:02.986Z,10000
2017-08-06T17:00:02.748Z,12000
2017-08-06T17:05:03.272Z,4000
2017-08-06T17:10:02.629Z,5000
2017-08-06T17:15:03.122Z,3000
2017-08-06T17:20:02.558Z,4000
2017-08-06T17:25:03.087Z,7000
2017-08-06T17:30:02.600Z,8000
2017-08-06T17:35:03.115Z,4000
2017-08-06T17:40:02.491Z,4000
2017-08-06T17:45:03.038Z,2000
2017-08-06T17:50:02.412Z,5000
2017-08-06T17:55:02.888Z,5000
2017-08-06T18:00:02.394Z,4000
2017-08-06T18:05:02.908Z,4000
2017-08-06T18:10:03.295Z,3000
2017-08-06T18:15:02.646Z,2000
2017-08-06T18:20:03.186Z,2000
2017-08-06T18:25:02.457Z,1000
2017-08-06T18:30:02.935Z,1000
2017-08-06T18:35:02.393Z,1000
2017-08-06T18:40:02.785Z,869
2017-08-06T18:45:03.312Z,576
2017-08-06T18:50:02.605Z,554
2017-08-06T18:55:02.958Z,483
2017-08-06T19:00:03.287Z,413
2017-08-06T19:05:02.671Z,283
2017-08-06T19:10:03.142Z,152
2017-08-06T19:15:02.455Z,67
2017-08-06T19:20:02.941Z,54
2017-08-06T19:25:02.383Z,43
2017-08-06T19:30:02.909Z,29
2017-08-06T19:35:02.464Z,17
2017-08-06T19:40:03.017Z,9
2017-08-06T19:45:02.501Z,4
2017-08-06T19:50:03.039Z,2
2017-08-06T19:55:02.443Z,1
2017-08-06T20:00:02.959Z,0
2017-08-06T20:05:02.510Z,0
2017-08-06T20:10:02.936Z,0
2017-08-06T20:15:03.226Z,0
2017-08-06T20:20:02.613Z,0
2017-08-06T20:25:03.091Z,0
2017-08-06T20:30:02.559Z,0
2017-08-06T20:35:02.989Z,0
2017-08-06T20:40:02.515Z,0
2017-08-06T20:45:03.013Z,0
2017-08-06T20:50:02.388Z,0
2017-08-06T20:55:02.659Z,0
2017-08-06T21:00:03.376Z,0
2017-08-06T21:05:02.904Z,0
2017-08-06T21:10:02.332Z,0
2017-08-06T21:15:02.879Z,0
2017-08-06T21:20:03.247Z,0
2017-08-06T21:25:02.662Z,0
2017-08-06T21:30:03.098Z,0
2017-08-06T21:35:02.584Z,0
2017-08-06T21:40:03.075Z,0
2017-08-06T21:45:02.517Z,0
2017-08-06T21:50:02.975Z,0
2017-08-06T21:55:02.436Z,0
2017-08-06T22:00:02.912Z,0
2017-08-06T22:05:03.224Z,0
2017-08-06T22:10:02.626Z,0
2017-08-06T22:15:02.933Z,0
2017-08-06T22:20:02.488Z,0
2017-08-06T22:25:02.913Z,0
2017-08-06T22:30:02.353Z,0
2017-08-06T22:35:02.816Z,0
2017-08-06T22:40:02.316Z,0
2017-08-06T22:45:02.784Z,0
2017-08-06T22:50:03.372Z,0
2017-08-06T22:55:02.683Z,0
2017-08-06T23:00:03.298Z,0
2017-08-06T23:05:02.614Z,0
2017-08-06T23:10:03.233Z,0
2017-08-06T23:15:02.550Z,0
2017-08-06T23:20:03.106Z,0
2017-08-06T23:25:02.600Z,0
2017-08-06T23:30:02.992Z,0
2017-08-06T23:35:02.358Z,0
2017-08-06T23:40:02.735Z,0
2017-08-06T23:45:03.160Z,0
2017-08-06T23:50:02.460Z,0
2017-08-06T23:55:02.796Z,0
